createdAt,value
2022-11-03T00:00:46.411Z,18.26
2022-11-03T00:03:12.958Z,18.26
2022-11-03T00:05:59.599Z,18.26
2022-11-03T00:08:31.682Z,18.23
2022-11-03T00:11:20.259Z,18.31
2022-11-03T00:13:47.079Z,17.87
2022-11-03T00:16:13.782Z,18.10
2022-11-03T00:18:40.386Z,18.50
2022-11-03T00:21:18.420Z,18.43
2022-11-03T00:23:48.767Z,18.26
2022-11-03T00:26:23.552Z,18.10
2022-11-03T00:28:52.497Z,18.13
2022-11-03T00:31:20.673Z,18.02
2022-11-03T00:33:56.605Z,17.94
2022-11-03T00:36:32.227Z,18.00
2022-11-03T00:44:21.357Z,18.20
2022-11-03T00:46:53.542Z,18.28
2022-11-03T00:49:22.218Z,18.46
2022-11-03T00:51:50.900Z,18.43
2022-11-03T00:54:22.518Z,18.56
2022-11-03T00:56:54.269Z,18.38
2022-11-03T00:59:25.801Z,18.51
2022-11-03T01:02:02.506Z,18.16
2022-11-03T01:04:55.603Z,18.27
2022-11-03T01:07:26.000Z,18.00
2022-11-03T01:09:56.234Z,17.99
2022-11-03T01:12:28.803Z,18.29
2022-11-03T01:14:59.763Z,18.43
2022-11-03T01:17:36.231Z,18.50
2022-11-03T01:20:03.730Z,18.52
2022-11-03T01:22:31.850Z,18.08
2022-11-03T01:25:04.312Z,18.08
2022-11-03T01:27:35.977Z,18.33
2022-11-03T01:30:02.749Z,18.37
2022-11-03T01:32:32.144Z,18.23
2022-11-03T01:35:00.472Z,18.32
2022-11-03T01:37:34.296Z,18.51
2022-11-03T01:40:01.715Z,18.40
2022-11-03T01:42:40.996Z,18.35
2022-11-03T01:45:13.568Z,17.97
2022-11-03T01:47:49.551Z,17.97
2022-11-03T01:50:19.898Z,18.06
2022-11-03T01:52:59.870Z,18.26
2022-11-03T01:55:41.744Z,18.14
2022-11-03T01:58:22.234Z,18.05
2022-11-03T02:01:03.799Z,18.17
2022-11-03T02:03:45.202Z,18.25
2022-11-03T02:06:12.338Z,18.29
2022-11-03T02:08:45.562Z,17.84
2022-11-03T02:11:32.065Z,18.15
2022-11-03T02:14:11.264Z,18.03
2022-11-03T02:16:43.663Z,18.10
2022-11-03T02:19:23.445Z,18.21
2022-11-03T02:22:14.489Z,18.24
2022-11-03T02:24:54.026Z,18.07
2022-11-03T02:27:33.229Z,18.27
2022-11-03T02:30:10.859Z,18.40
2022-11-03T02:32:50.211Z,18.27
2022-11-03T02:35:22.812Z,18.11
2022-11-03T02:37:57.266Z,18.33
2022-11-03T02:40:39.205Z,18.09
2022-11-03T02:43:19.956Z,17.72
2022-11-03T02:45:50.390Z,17.85
2022-11-03T02:48:23.765Z,18.12
2022-11-03T02:50:50.347Z,18.30
2022-11-03T02:53:20.025Z,18.38
2022-11-03T02:56:04.585Z,18.22
2022-11-03T02:58:55.936Z,18.08
2022-11-03T03:01:50.648Z,17.98
2022-11-03T03:04:45.981Z,17.79
2022-11-03T03:07:41.248Z,17.59
2022-11-03T03:10:17.542Z,17.66
2022-11-03T03:12:55.493Z,17.75
2022-11-03T03:15:47.885Z,17.78
2022-11-03T03:18:23.984Z,17.79
2022-11-03T03:21:13.215Z,18.03
2022-11-03T03:24:01.708Z,17.96
2022-11-03T03:26:50.165Z,17.89
2022-11-03T03:29:28.742Z,17.88
2022-11-03T03:32:00.582Z,17.74
2022-11-03T03:34:41.472Z,17.68
2022-11-03T03:37:16.011Z,17.78
2022-11-03T03:39:49.548Z,17.38
2022-11-03T03:42:22.972Z,17.55
2022-11-03T03:44:57.105Z,17.82
2022-11-03T03:50:13.612Z,17.71
2022-11-03T03:52:53.669Z,17.53
2022-11-03T03:55:22.339Z,17.42
2022-11-03T03:57:49.009Z,17.56
2022-11-03T04:00:20.325Z,17.61
2022-11-03T04:02:46.927Z,17.58
2022-11-03T04:05:22.795Z,17.48
2022-11-03T04:07:54.712Z,17.29
2022-11-03T04:10:27.371Z,17.31
2022-11-03T04:13:12.520Z,17.41
2022-11-03T04:16:13.162Z,16.89
2022-11-03T04:18:58.141Z,17.14
2022-11-03T04:22:03.119Z,17.21
2022-11-03T04:24:36.369Z,17.13
2022-11-03T04:27:28.159Z,17.27
2022-11-03T04:30:09.695Z,17.31
2022-11-03T04:32:44.531Z,17.34
2022-11-03T04:35:31.401Z,17.22
2022-11-03T04:38:26.632Z,17.23
2022-11-03T04:41:03.149Z,17.19
2022-11-03T04:46:26.059Z,17.23
2022-11-03T04:54:31.898Z,16.98
2022-11-03T04:57:01.080Z,17.10
2022-11-03T05:02:17.663Z,16.71
2022-11-03T05:04:44.433Z,16.72
2022-11-03T05:07:41.991Z,16.43
2022-11-03T05:10:19.310Z,16.61
2022-11-03T05:13:01.133Z,16.75
2022-11-03T05:15:28.764Z,16.63
2022-11-03T05:18:00.996Z,16.50
2022-11-03T05:20:48.139Z,16.41
2022-11-03T05:26:13.421Z,16.49
2022-11-03T05:28:45.414Z,16.37
2022-11-03T05:31:41.751Z,16.45
2022-11-03T05:34:46.237Z,16.59
2022-11-03T05:37:41.511Z,16.62
2022-11-03T05:40:25.708Z,16.48
2022-11-03T05:43:01.568Z,16.40
2022-11-03T05:45:37.422Z,16.32
2022-11-03T05:51:07.016Z,16.51
2022-11-03T05:53:53.765Z,16.47
2022-11-03T06:01:55.286Z,16.57
2022-11-03T06:07:34.903Z,16.79
2022-11-03T06:10:02.839Z,16.94
2022-11-03T06:15:33.071Z,17.08
2022-11-03T06:18:02.235Z,17.05
2022-11-03T06:20:32.193Z,17.17
2022-11-03T06:23:03.315Z,17.28
2022-11-03T06:25:36.347Z,16.86
2022-11-03T06:28:21.938Z,16.91
2022-11-03T06:30:56.966Z,17.14
2022-11-03T06:33:37.633Z,17.37
2022-11-03T06:36:22.041Z,17.42
2022-11-03T06:38:58.737Z,17.45
2022-11-03T06:41:36.203Z,17.62
2022-11-03T06:44:21.475Z,17.54
2022-11-03T06:46:48.098Z,17.75
2022-11-03T06:49:28.614Z,17.79
2022-11-03T06:52:01.797Z,17.79
2022-11-03T06:54:32.725Z,17.75
2022-11-03T06:57:06.939Z,17.81
2022-11-03T07:02:56.848Z,17.83
2022-11-03T07:05:39.993Z,17.80
2022-11-03T07:08:44.057Z,18.01
2022-11-03T07:11:27.888Z,18.23
2022-11-03T07:14:11.106Z,18.11
2022-11-03T07:16:48.086Z,18.23
2022-11-03T07:19:39.966Z,18.11
2022-11-03T07:22:36.488Z,18.03
2022-11-03T07:25:08.520Z,18.09
2022-11-03T07:27:40.276Z,18.32
2022-11-03T07:36:19.475Z,18.57
2022-11-03T07:38:56.406Z,18.40
2022-11-03T07:41:37.628Z,18.49
2022-11-03T07:44:06.095Z,18.25
2022-11-03T07:46:32.719Z,18.29
2022-11-03T07:49:07.392Z,18.48
2022-11-03T07:51:43.055Z,18.45
2022-11-03T07:54:17.200Z,18.14
2022-11-03T07:56:56.130Z,18.61
2022-11-03T07:59:44.445Z,18.77
2022-11-03T08:02:19.830Z,18.91
2022-11-03T08:07:40.457Z,18.89
2022-11-03T08:10:13.741Z,18.97
2022-11-03T08:12:46.758Z,18.60
2022-11-03T08:15:19.778Z,18.56
2022-11-03T08:17:57.201Z,18.93
2022-11-03T08:20:27.978Z,19.08
2022-11-03T08:25:56.629Z,18.77
2022-11-03T08:28:30.542Z,19.03
2022-11-03T08:31:11.213Z,18.87
2022-11-03T08:33:39.303Z,18.40
2022-11-03T08:36:10.645Z,18.41
2022-11-03T08:38:37.944Z,18.61
2022-11-03T08:41:10.472Z,18.84
2022-11-03T08:43:37.072Z,18.72
2022-11-03T08:46:15.466Z,19.03
2022-11-03T08:48:50.904Z,18.98
2022-11-03T08:51:22.552Z,18.96
2022-11-03T08:53:55.171Z,19.13
2022-11-03T08:56:30.307Z,18.92
2022-11-03T08:58:57.813Z,18.89
2022-11-03T09:01:31.966Z,18.81
2022-11-03T09:04:00.634Z,19.26
2022-11-03T09:06:37.846Z,19.48
2022-11-03T09:12:01.755Z,19.13
2022-11-03T09:14:35.688Z,19.20
2022-11-03T09:19:31.631Z,19.63
2022-11-03T09:22:03.997Z,19.59
2022-11-03T09:24:40.618Z,19.70
2022-11-03T09:27:07.577Z,19.60
2022-11-03T09:30:11.116Z,19.66
2022-11-03T09:32:35.214Z,19.72
2022-11-03T09:35:10.033Z,19.90
2022-11-03T09:37:38.198Z,18.95
2022-11-03T09:40:15.610Z,19.17
2022-11-03T09:42:46.766Z,19.74
2022-11-03T09:45:18.266Z,19.96
2022-11-03T09:48:00.926Z,20.08
2022-11-03T09:50:31.868Z,19.88
2022-11-03T09:53:09.180Z,20.15
2022-11-03T09:55:43.398Z,20.11
2022-11-03T09:58:20.712Z,20.03
2022-11-03T10:00:58.353Z,20.33
2022-11-03T10:06:25.293Z,20.52
2022-11-03T10:08:52.952Z,20.49
2022-11-03T10:11:29.387Z,20.63
2022-11-03T10:14:04.637Z,20.29
2022-11-03T10:16:31.269Z,20.61
2022-11-03T10:19:01.966Z,20.71
2022-11-03T10:21:37.638Z,20.58
2022-11-03T10:24:06.279Z,20.92
2022-11-03T10:26:47.071Z,20.78
2022-11-03T10:29:34.596Z,20.73
2022-11-03T10:32:10.181Z,20.89
2022-11-03T10:34:39.649Z,20.95
2022-11-03T10:37:44.593Z,21.08
2022-11-03T10:40:53.796Z,20.85
2022-11-03T10:43:29.885Z,20.73
2022-11-03T10:46:36.417Z,20.72
2022-11-03T10:49:14.697Z,20.89
2022-11-03T10:51:49.194Z,21.14
2022-11-03T10:54:24.638Z,21.17
2022-11-03T10:56:52.397Z,20.83
2022-11-03T10:59:31.386Z,21.12
2022-11-03T11:01:59.788Z,21.40
2022-11-03T11:04:33.970Z,21.37
2022-11-03T11:07:12.928Z,21.28
2022-11-03T11:09:44.308Z,21.04
2022-11-03T11:12:28.593Z,21.25
2022-11-03T11:15:08.052Z,21.21
2022-11-03T11:17:37.503Z,21.31
2022-11-03T11:20:19.621Z,21.45
2022-11-03T11:22:51.816Z,21.59
2022-11-03T11:25:29.210Z,21.49
2022-11-03T11:28:03.584Z,20.82
2022-11-03T11:30:39.029Z,21.26
2022-11-03T11:33:15.993Z,21.51
2022-11-03T11:35:44.105Z,21.43
2022-11-03T11:39:05.061Z,21.33
2022-11-03T11:42:18.594Z,21.39
2022-11-03T11:44:56.054Z,21.21
2022-11-03T11:47:33.737Z,21.06
2022-11-03T11:50:15.665Z,21.60
2022-11-03T11:52:51.194Z,21.69
2022-11-03T11:55:21.715Z,21.80
2022-11-03T11:57:51.440Z,21.87
2022-11-03T12:00:27.025Z,21.68
2022-11-03T12:03:00.465Z,21.87
2022-11-03T12:05:45.312Z,20.93
2022-11-03T12:08:19.552Z,21.38
2022-11-03T12:10:53.785Z,21.72
2022-11-03T12:13:47.648Z,21.37
2022-11-03T12:16:29.589Z,21.50
2022-11-03T12:19:03.504Z,21.68
2022-11-03T12:21:59.186Z,21.89
2022-11-03T12:24:35.102Z,21.74
2022-11-03T12:27:03.638Z,21.77
2022-11-03T12:29:30.424Z,20.31
2022-11-03T12:31:56.993Z,21.03
2022-11-03T12:34:29.442Z,20.75
2022-11-03T12:37:02.920Z,21.25
2022-11-03T12:39:32.783Z,21.78
2022-11-03T12:42:11.475Z,21.81
2022-11-03T12:44:47.794Z,21.36
2022-11-03T12:47:18.490Z,21.69
2022-11-03T12:49:49.003Z,21.61
2022-11-03T12:52:22.823Z,21.23
2022-11-03T12:54:51.400Z,21.63
2022-11-03T12:57:17.969Z,21.76
2022-11-03T12:59:52.293Z,21.94
2022-11-03T13:02:19.108Z,21.92
2022-11-03T13:04:46.186Z,22.02
2022-11-03T13:07:25.594Z,22.09
2022-11-03T13:10:02.362Z,22.01
2022-11-03T13:12:39.720Z,22.07
2022-11-03T13:15:14.263Z,22.06
2022-11-03T13:20:34.696Z,21.98
2022-11-03T13:23:22.943Z,22.03
2022-11-03T13:25:57.359Z,21.89
2022-11-03T13:31:07.402Z,21.98
2022-11-03T13:33:38.555Z,21.92
2022-11-03T13:39:07.307Z,21.80
2022-11-03T13:41:38.159Z,21.82
2022-11-03T13:44:06.608Z,21.86
2022-11-03T13:46:42.110Z,21.81
2022-11-03T13:52:06.604Z,21.75
2022-11-03T14:00:28.477Z,21.56
2022-11-03T14:05:47.802Z,21.39
2022-11-03T14:11:00.343Z,21.34
2022-11-03T14:16:07.647Z,21.29
2022-11-03T14:18:37.102Z,21.32
2022-11-03T14:21:33.458Z,21.28
2022-11-03T14:24:11.386Z,21.04
2022-11-03T14:26:42.686Z,21.00
2022-11-03T14:29:16.312Z,20.99
2022-11-03T14:31:46.163Z,20.94
2022-11-03T14:34:22.418Z,20.83
2022-11-03T14:37:06.157Z,20.82
2022-11-03T14:39:44.877Z,20.75
2022-11-03T14:42:22.866Z,20.70
2022-11-03T14:47:29.723Z,20.55
2022-11-03T14:50:01.358Z,20.42
2022-11-03T14:52:37.764Z,20.36
2022-11-03T14:55:09.823Z,20.26
2022-11-03T14:57:36.539Z,20.28
2022-11-03T15:00:10.271Z,20.22
2022-11-03T15:02:45.635Z,20.11
2022-11-03T15:05:46.147Z,20.08
2022-11-03T15:08:21.297Z,19.97
2022-11-03T15:10:55.364Z,20.01
2022-11-03T15:13:25.990Z,19.89
2022-11-03T15:15:52.616Z,19.89
2022-11-03T15:18:26.694Z,19.87
2022-11-03T15:29:21.132Z,19.58
2022-11-03T15:31:54.879Z,19.60
2022-11-03T15:34:21.549Z,19.52
2022-11-03T15:36:54.018Z,19.49
2022-11-03T15:39:24.225Z,19.53
2022-11-03T15:41:50.891Z,19.51
2022-11-03T15:44:30.604Z,19.50
2022-11-03T15:46:57.229Z,19.37
2022-11-03T15:49:33.570Z,19.48
2022-11-03T15:52:00.157Z,19.33
2022-11-03T15:54:42.282Z,19.40
2022-11-03T15:57:43.247Z,19.29
2022-11-03T16:03:12.014Z,19.36
2022-11-03T16:05:47.811Z,19.36
2022-11-03T16:08:23.911Z,19.32
2022-11-03T16:13:48.918Z,19.33
2022-11-03T16:16:26.076Z,19.37
2022-11-03T16:18:52.760Z,19.34
2022-11-03T16:21:26.328Z,19.43
2022-11-03T16:24:02.017Z,19.00
2022-11-03T16:26:29.106Z,18.89
2022-11-03T16:28:55.717Z,18.94
2022-11-03T16:31:29.611Z,18.96
2022-11-03T16:34:07.342Z,19.00
2022-11-03T16:36:47.987Z,19.00
2022-11-03T16:39:20.869Z,19.00
2022-11-03T16:42:00.450Z,19.02
2022-11-03T16:44:37.682Z,19.02
2022-11-03T16:47:09.445Z,19.06
2022-11-03T16:49:41.473Z,18.98
2022-11-03T16:52:11.321Z,19.06
2022-11-03T16:57:19.645Z,18.97
2022-11-03T16:59:50.022Z,18.98
2022-11-03T17:02:16.920Z,18.98
2022-11-03T17:04:50.636Z,19.05
2022-11-03T17:07:20.670Z,18.74
2022-11-03T17:12:36.777Z,18.42
2022-11-03T17:15:14.588Z,18.54
2022-11-03T17:17:41.598Z,18.47
2022-11-03T17:20:09.661Z,18.59
2022-11-03T17:22:47.693Z,18.54
2022-11-03T17:25:14.729Z,18.61
2022-11-03T17:28:00.405Z,18.56
2022-11-03T17:30:38.465Z,18.54
2022-11-03T17:33:16.141Z,18.52
2022-11-03T17:35:54.763Z,18.48
2022-11-03T17:38:25.785Z,18.45
2022-11-03T17:40:57.836Z,18.47
2022-11-03T17:43:31.271Z,18.48
2022-11-03T17:46:33.675Z,18.29
2022-11-03T17:49:13.940Z,18.35
2022-11-03T17:51:43.351Z,18.27
2022-11-03T17:54:16.177Z,18.27
2022-11-03T17:56:42.944Z,18.27
2022-11-03T18:10:13.241Z,18.07
2022-11-03T18:13:33.044Z,17.97
2022-11-03T18:18:48.951Z,17.98
2022-11-03T18:21:26.804Z,17.94
2022-11-03T18:24:01.843Z,18.06
2022-11-03T18:32:02.222Z,17.97
2022-11-03T18:34:35.361Z,18.01
2022-11-03T18:37:03.092Z,18.02
2022-11-03T18:39:29.888Z,17.97
2022-11-03T18:42:20.766Z,17.87
2022-11-03T18:44:48.797Z,17.89
2022-11-03T18:47:15.482Z,17.95
2022-11-03T18:49:49.800Z,17.93
2022-11-03T18:52:19.507Z,17.78
2022-11-03T18:54:50.377Z,17.75
2022-11-03T18:57:36.480Z,17.70
2022-11-03T19:00:15.102Z,17.70
2022-11-03T19:02:44.408Z,17.82
2022-11-03T19:05:22.006Z,17.83
2022-11-03T19:07:50.256Z,17.94
2022-11-03T19:10:26.365Z,17.93
2022-11-03T19:13:05.693Z,18.01
2022-11-03T19:15:41.057Z,18.06
2022-11-03T19:18:10.779Z,18.07
2022-11-03T19:20:45.582Z,18.05
2022-11-03T19:23:18.388Z,17.37
2022-11-03T19:25:46.545Z,17.57
2022-11-03T19:28:25.614Z,17.71
2022-11-03T19:30:57.634Z,16.87
2022-11-03T19:33:39.439Z,17.06
2022-11-03T19:36:06.729Z,17.07
2022-11-03T19:38:39.980Z,17.11
2022-11-03T19:41:43.937Z,17.08
2022-11-03T19:44:22.316Z,17.04
2022-11-03T19:46:56.466Z,17.23
2022-11-03T19:49:23.431Z,17.14
2022-11-03T19:51:50.243Z,17.14
2022-11-03T19:54:21.623Z,17.26
2022-11-03T19:57:01.450Z,17.28
2022-11-03T19:59:33.773Z,17.34
2022-11-03T20:02:00.535Z,17.09
2022-11-03T20:04:27.371Z,17.20
2022-11-03T20:09:37.098Z,17.40
2022-11-03T20:12:14.368Z,17.43
2022-11-03T20:14:47.979Z,17.42
2022-11-03T20:17:22.574Z,17.35
2022-11-03T20:22:38.943Z,17.44
2022-11-03T20:25:16.737Z,17.44
2022-11-03T20:27:48.667Z,17.40
2022-11-03T20:30:18.025Z,17.26
2022-11-03T20:32:48.801Z,17.35
2022-11-03T20:35:24.643Z,17.15
2022-11-03T20:37:55.487Z,16.99
2022-11-03T20:40:32.421Z,17.10
2022-11-03T20:43:11.329Z,16.78
2022-11-03T20:45:48.368Z,16.97
2022-11-03T20:48:17.366Z,16.84
2022-11-03T20:50:44.217Z,16.88
2022-11-03T20:53:23.094Z,16.87
2022-11-03T20:55:52.132Z,17.01
2022-11-03T20:58:18.967Z,17.04
2022-11-03T21:00:55.226Z,17.05
2022-11-03T21:03:58.008Z,16.95
2022-11-03T21:06:28.579Z,16.99
2022-11-03T21:09:07.001Z,16.93
2022-11-03T21:11:51.740Z,16.85
2022-11-03T21:14:34.077Z,16.92
2022-11-03T21:17:19.617Z,16.98
2022-11-03T21:20:01.774Z,16.95
2022-11-03T21:22:54.778Z,16.81
2022-11-03T21:25:28.681Z,16.83
2022-11-03T21:27:55.402Z,16.86
2022-11-03T21:30:26.605Z,16.85
2022-11-03T21:32:55.015Z,16.89
2022-11-03T21:35:35.321Z,16.82
2022-11-03T21:38:06.861Z,16.65
2022-11-03T21:40:44.030Z,16.71
2022-11-03T21:43:30.097Z,16.85
2022-11-03T21:46:28.410Z,16.85
2022-11-03T21:49:24.417Z,16.83
2022-11-03T21:51:51.574Z,16.85
2022-11-03T21:54:19.753Z,16.82
2022-11-03T21:56:46.453Z,16.81
2022-11-03T21:59:13.242Z,16.81
2022-11-03T22:01:40.640Z,16.71
2022-11-03T22:04:07.346Z,16.54
2022-11-03T22:06:47.847Z,16.65
2022-11-03T22:09:21.673Z,16.70
2022-11-03T22:12:00.415Z,16.56
2022-11-03T22:14:29.126Z,16.37
2022-11-03T22:19:54.082Z,16.31
2022-11-03T22:22:44.422Z,16.49
2022-11-03T22:25:35.365Z,16.36
2022-11-03T22:28:02.001Z,16.26
2022-11-03T22:30:52.341Z,16.41
2022-11-03T22:33:24.633Z,16.37
2022-11-03T22:36:10.061Z,16.49
2022-11-03T22:38:57.768Z,16.47
2022-11-03T22:42:03.552Z,16.27
2022-11-03T22:45:01.960Z,16.33
2022-11-03T22:47:37.319Z,16.22
2022-11-03T22:50:09.958Z,16.16
2022-11-03T22:52:41.860Z,16.28
2022-11-03T22:55:08.543Z,16.31
2022-11-03T22:57:40.027Z,16.10
2022-11-03T23:00:07.139Z,16.15
2022-11-03T23:02:33.883Z,16.16
2022-11-03T23:05:01.610Z,16.05
2022-11-03T23:07:38.499Z,15.82
2022-11-03T23:10:23.550Z,15.73
2022-11-03T23:12:55.231Z,15.93
2022-11-03T23:15:39.628Z,15.81
2022-11-03T23:18:31.974Z,15.65
2022-11-03T23:21:07.685Z,15.64
2022-11-03T23:24:02.141Z,15.50
2022-11-03T23:26:29.105Z,15.78
2022-11-03T23:29:00.351Z,15.89
2022-11-03T23:31:31.606Z,16.02
2022-11-03T23:34:01.792Z,15.84
2022-11-03T23:36:35.438Z,15.94
2022-11-03T23:39:03.459Z,15.94
2022-11-03T23:41:30.833Z,15.92
2022-11-03T23:44:07.127Z,15.91
2022-11-03T23:47:00.728Z,16.00
2022-11-03T23:49:30.717Z,15.87
2022-11-03T23:51:57.395Z,15.77
2022-11-03T23:54:25.533Z,15.81
2022-11-03T23:57:17.550Z,15.74
2022-11-03T23:59:53.136Z,15.72
